createdAt,value
2022-12-24T00:02:02.093Z,10.40
2022-12-24T00:04:29.078Z,10.50
2022-12-24T00:06:55.731Z,10.50
2022-12-24T00:09:24.917Z,10.50
2022-12-24T00:11:54.740Z,10.50
2022-12-24T00:14:23.957Z,10.50
2022-12-24T00:16:53.054Z,10.50
2022-12-24T00:19:19.847Z,10.40
2022-12-24T00:21:46.577Z,10.40
2022-12-24T00:24:15.215Z,10.50
2022-12-24T00:26:44.326Z,10.50
2022-12-24T00:29:12.316Z,10.60
2022-12-24T00:31:44.210Z,10.70
2022-12-24T00:34:18.516Z,10.70
2022-12-24T00:36:45.222Z,10.80
2022-12-24T00:39:14.189Z,10.80
2022-12-24T00:41:42.077Z,10.80
2022-12-24T00:44:12.586Z,10.80
2022-12-24T00:46:41.221Z,10.80
2022-12-24T00:49:09.277Z,10.80
2022-12-24T00:51:37.199Z,10.80
2022-12-24T00:54:06.934Z,10.90
2022-12-24T00:56:33.785Z,10.90
2022-12-24T00:59:01.150Z,11.00
2022-12-24T01:01:33.290Z,11.00
2022-12-24T01:04:18.913Z,11.10
2022-12-24T01:06:48.469Z,11.10
2022-12-24T01:09:23.101Z,11.10
2022-12-24T01:11:50.079Z,11.10
2022-12-24T01:14:16.906Z,11.10
2022-12-24T01:16:43.587Z,11.20
2022-12-24T01:19:10.848Z,11.20
2022-12-24T01:21:39.693Z,11.30
2022-12-24T01:24:06.806Z,11.30
2022-12-24T01:26:33.536Z,11.30
2022-12-24T01:29:02.855Z,11.30
2022-12-24T01:31:29.709Z,11.20
2022-12-24T01:33:58.140Z,11.30
2022-12-24T01:36:34.911Z,11.30
2022-12-24T01:39:03.862Z,11.30
2022-12-24T01:41:51.291Z,11.40
2022-12-24T01:44:36.511Z,11.50
2022-12-24T01:47:12.339Z,11.50
2022-12-24T01:49:47.991Z,11.40
2022-12-24T01:52:22.822Z,11.50
2022-12-24T01:54:56.486Z,11.40
2022-12-24T01:57:27.904Z,11.40
2022-12-24T01:59:58.411Z,11.40
2022-12-24T02:02:26.076Z,11.20
2022-12-24T02:05:10.124Z,11.10
2022-12-24T02:07:37.498Z,10.90
2022-12-24T02:10:10.691Z,10.80
2022-12-24T02:12:41.299Z,10.80
2022-12-24T02:15:10.342Z,10.70
2022-12-24T02:17:37.020Z,10.60
2022-12-24T02:20:24.868Z,10.70
2022-12-24T02:23:15.624Z,10.60
2022-12-24T02:25:47.589Z,10.50
2022-12-24T02:28:21.596Z,10.40
2022-12-24T02:30:59.630Z,10.40
2022-12-24T02:34:05.902Z,10.30
2022-12-24T02:36:48.314Z,10.30
2022-12-24T02:39:23.959Z,10.20
2022-12-24T02:42:06.553Z,10.20
2022-12-24T02:45:08.653Z,10.20
2022-12-24T02:47:36.194Z,10.20
2022-12-24T02:50:07.429Z,10.00
2022-12-24T02:52:38.746Z,9.90
2022-12-24T02:55:08.521Z,10.00
2022-12-24T02:58:06.276Z,9.90
2022-12-24T03:01:16.324Z,9.80
2022-12-24T03:04:04.335Z,9.80
2022-12-24T03:06:49.313Z,9.70
2022-12-24T03:09:24.977Z,9.70
2022-12-24T03:11:59.780Z,9.80
2022-12-24T03:14:28.001Z,9.80
2022-12-24T03:16:58.363Z,9.80
2022-12-24T03:19:27.940Z,9.70
2022-12-24T03:21:59.472Z,9.70
2022-12-24T03:24:26.347Z,9.70
2022-12-24T03:26:59.323Z,9.70
2022-12-24T03:29:28.599Z,9.70
2022-12-24T03:32:03.929Z,9.70
2022-12-24T03:34:31.276Z,9.70
2022-12-24T03:36:59.144Z,9.60
2022-12-24T03:39:25.884Z,9.50
2022-12-24T03:41:52.640Z,9.50
2022-12-24T03:44:19.326Z,9.40
2022-12-24T03:46:49.259Z,9.40
2022-12-24T03:49:15.937Z,9.40
2022-12-24T03:51:45.194Z,9.40
2022-12-24T03:54:11.953Z,9.40
2022-12-24T03:56:38.601Z,9.40
2022-12-24T03:59:05.369Z,9.40
2022-12-24T04:01:32.213Z,9.40
2022-12-24T04:04:01.195Z,9.40
2022-12-24T04:06:28.010Z,9.40
2022-12-24T04:08:54.695Z,9.30
2022-12-24T04:11:21.465Z,9.30
2022-12-24T04:13:48.243Z,9.30
2022-12-24T04:16:17.150Z,9.30
2022-12-24T04:18:44.283Z,9.30
2022-12-24T04:21:13.895Z,9.30
2022-12-24T04:23:43.405Z,9.40
2022-12-24T04:26:14.918Z,9.40
2022-12-24T04:28:42.651Z,9.40
2022-12-24T04:31:12.686Z,9.30
2022-12-24T04:33:39.509Z,9.30
2022-12-24T04:36:07.920Z,9.20
2022-12-24T04:38:35.358Z,9.30
2022-12-24T04:41:08.112Z,9.20
2022-12-24T04:43:37.968Z,9.20
2022-12-24T04:46:18.627Z,9.20
2022-12-24T04:48:47.281Z,9.20
2022-12-24T04:51:15.126Z,9.20
2022-12-24T04:53:42.832Z,9.20
2022-12-24T04:56:15.627Z,9.30
2022-12-24T04:58:42.627Z,9.30
2022-12-24T05:01:13.519Z,9.40
2022-12-24T05:03:40.345Z,9.40
2022-12-24T05:06:11.484Z,9.40
2022-12-24T05:08:41.077Z,9.40
2022-12-24T05:11:10.468Z,9.40
2022-12-24T05:13:46.196Z,9.40
2022-12-24T05:16:15.297Z,9.40
2022-12-24T05:18:42.057Z,9.40
2022-12-24T05:21:15.069Z,9.50
2022-12-24T05:24:02.890Z,9.60
2022-12-24T05:26:42.723Z,9.60
2022-12-24T05:29:12.294Z,9.70
2022-12-24T05:31:40.259Z,9.60
2022-12-24T05:34:10.585Z,9.50
2022-12-24T05:36:37.638Z,9.50
2022-12-24T05:39:07.256Z,9.50
2022-12-24T05:41:36.657Z,9.40
2022-12-24T05:44:03.407Z,9.40
2022-12-24T05:46:32.314Z,9.50
2022-12-24T05:49:01.528Z,9.40
2022-12-24T05:51:28.233Z,9.40
2022-12-24T05:53:54.942Z,9.30
2022-12-24T05:56:26.597Z,9.20
2022-12-24T05:58:54.700Z,9.10
2022-12-24T06:01:24.992Z,9.00
2022-12-24T06:03:54.296Z,8.80
2022-12-24T06:06:26.918Z,8.80
2022-12-24T06:08:54.824Z,8.80
2022-12-24T06:11:24.131Z,8.80
2022-12-24T06:13:53.581Z,8.70
2022-12-24T06:16:23.039Z,8.70
2022-12-24T06:18:52.647Z,8.50
2022-12-24T06:21:23.824Z,8.40
2022-12-24T06:23:52.957Z,8.30
2022-12-24T06:26:22.787Z,8.30
2022-12-24T06:28:51.031Z,8.20
2022-12-24T06:31:20.410Z,8.10
2022-12-24T06:33:47.373Z,8.10
2022-12-24T06:36:17.869Z,8.10
2022-12-24T06:38:48.764Z,8.00
2022-12-24T06:41:18.733Z,7.90
2022-12-24T06:43:47.224Z,7.80
2022-12-24T06:46:14.793Z,7.80
2022-12-24T06:48:42.360Z,7.80
2022-12-24T06:51:09.085Z,7.80
2022-12-24T06:53:35.839Z,7.80
2022-12-24T06:56:03.275Z,7.80
2022-12-24T06:58:32.557Z,7.80
2022-12-24T07:01:02.620Z,7.80
2022-12-24T07:03:31.990Z,7.80
2022-12-24T07:05:58.923Z,7.80
2022-12-24T07:08:28.047Z,7.80
2022-12-24T07:10:54.893Z,7.80
2022-12-24T07:13:21.781Z,7.70
2022-12-24T07:16:03.149Z,7.80
2022-12-24T07:18:30.808Z,7.70
2022-12-24T07:20:58.096Z,7.70
2022-12-24T07:23:27.177Z,7.70
2022-12-24T07:25:53.892Z,7.70
2022-12-24T07:28:28.037Z,7.60
2022-12-24T07:30:56.342Z,7.60
2022-12-24T07:33:26.379Z,7.50
2022-12-24T07:36:06.118Z,7.50
2022-12-24T07:38:36.285Z,7.50
2022-12-24T07:41:05.318Z,7.60
2022-12-24T07:43:35.289Z,7.70
2022-12-24T07:46:02.370Z,7.80
2022-12-24T07:48:32.967Z,7.80
2022-12-24T07:51:02.959Z,7.80
2022-12-24T07:53:30.177Z,7.80
2022-12-24T07:55:59.689Z,7.90
2022-12-24T07:58:29.379Z,7.90
2022-12-24T08:01:00.773Z,7.90
2022-12-24T08:03:28.062Z,7.90
2022-12-24T08:05:55.235Z,8.00
2022-12-24T08:08:24.139Z,8.10
2022-12-24T08:10:53.166Z,8.20
2022-12-24T08:13:20.024Z,8.20
2022-12-24T08:15:46.841Z,8.20
2022-12-24T08:18:13.609Z,8.30
2022-12-24T08:20:41.352Z,8.30
2022-12-24T08:23:08.737Z,8.30
2022-12-24T08:25:36.098Z,8.30
2022-12-24T08:28:05.731Z,8.40
2022-12-24T08:30:35.139Z,8.40
2022-12-24T08:33:02.134Z,8.40
2022-12-24T08:35:29.045Z,8.40
2022-12-24T08:37:55.911Z,8.30
2022-12-24T08:40:28.104Z,8.30
2022-12-24T08:42:55.223Z,8.40
2022-12-24T08:45:25.911Z,8.40
2022-12-24T08:47:55.113Z,8.50
2022-12-24T08:50:21.839Z,8.50
2022-12-24T08:52:48.558Z,8.50
2022-12-24T08:55:20.884Z,8.50
2022-12-24T08:57:47.683Z,8.60
2022-12-24T09:00:15.095Z,8.60
2022-12-24T09:02:44.223Z,8.60
2022-12-24T09:05:17.753Z,8.70
2022-12-24T09:07:45.006Z,8.70
2022-12-24T09:10:18.622Z,8.70
2022-12-24T09:12:45.445Z,8.70
2022-12-24T09:15:14.606Z,8.70
2022-12-24T09:17:44.001Z,8.70
2022-12-24T09:20:11.055Z,8.70
2022-12-24T09:22:39.347Z,8.80
2022-12-24T09:25:07.215Z,8.90
2022-12-24T09:27:36.544Z,9.00
2022-12-24T09:30:04.417Z,8.90
2022-12-24T09:32:31.138Z,8.90
2022-12-24T09:35:00.996Z,8.90
2022-12-24T09:37:30.283Z,8.90
2022-12-24T09:39:57.006Z,9.00
2022-12-24T09:43:02.968Z,9.10
2022-12-24T09:45:37.575Z,9.20
2022-12-24T09:48:14.147Z,9.30
2022-12-24T09:50:56.793Z,9.40
2022-12-24T09:53:41.759Z,9.40
2022-12-24T09:56:33.123Z,9.50
2022-12-24T09:59:02.702Z,9.60
2022-12-24T10:01:34.311Z,9.60
2022-12-24T10:04:09.969Z,9.70
2022-12-24T10:07:05.143Z,9.80
2022-12-24T10:10:02.809Z,10.00
2022-12-24T10:12:54.157Z,10.30
2022-12-24T10:15:24.915Z,10.40
2022-12-24T10:18:19.033Z,10.40
2022-12-24T10:20:57.819Z,10.40
2022-12-24T10:23:47.980Z,10.30
2022-12-24T10:26:35.595Z,10.30
2022-12-24T10:29:36.057Z,10.30
2022-12-24T10:32:08.517Z,10.30
2022-12-24T10:34:52.443Z,10.30
2022-12-24T10:37:29.985Z,10.40
2022-12-24T10:39:59.278Z,10.40
2022-12-24T10:42:50.359Z,10.50
2022-12-24T10:45:23.156Z,10.60
2022-12-24T10:47:54.542Z,10.70
2022-12-24T10:50:36.500Z,10.80
2022-12-24T10:53:44.350Z,11.00
2022-12-24T10:56:17.139Z,11.10
2022-12-24T10:58:55.046Z,11.30
2022-12-24T11:01:46.125Z,11.50
2022-12-24T11:04:32.931Z,11.70
2022-12-24T11:07:02.575Z,11.70
2022-12-24T11:09:34.885Z,11.80
2022-12-24T11:12:08.904Z,11.90
2022-12-24T11:14:38.646Z,12.00
2022-12-24T11:17:08.037Z,12.00
2022-12-24T11:19:40.979Z,12.10
2022-12-24T11:22:18.012Z,12.10
2022-12-24T11:24:50.071Z,12.10
2022-12-24T11:27:49.730Z,12.20
2022-12-24T11:30:18.687Z,12.30
2022-12-24T11:33:08.181Z,12.30
2022-12-24T11:35:45.951Z,12.30
2022-12-24T11:38:19.487Z,12.30
2022-12-24T11:41:01.959Z,12.30
2022-12-24T11:43:45.801Z,12.20
2022-12-24T11:46:17.202Z,12.20
2022-12-24T11:48:44.731Z,12.30
2022-12-24T11:51:27.683Z,12.30
2022-12-24T11:54:19.268Z,12.40
2022-12-24T11:56:57.230Z,12.30
2022-12-24T11:59:27.042Z,12.30
2022-12-24T12:02:26.784Z,12.40
2022-12-24T12:05:05.640Z,12.40
2022-12-24T12:07:36.698Z,12.40
2022-12-24T12:10:22.284Z,12.40
2022-12-24T12:13:11.161Z,12.30
2022-12-24T12:15:52.111Z,12.30
2022-12-24T12:18:29.087Z,12.30
2022-12-24T12:21:04.833Z,12.20
2022-12-24T12:23:43.020Z,12.20
2022-12-24T12:26:27.591Z,12.20
2022-12-24T12:29:12.457Z,12.20
2022-12-24T12:31:39.266Z,12.20
2022-12-24T12:34:41.333Z,12.30
2022-12-24T12:37:15.241Z,12.30
2022-12-24T12:39:42.708Z,12.30
2022-12-24T12:42:32.457Z,12.40
2022-12-24T12:45:20.507Z,12.40
2022-12-24T12:48:05.895Z,12.40
2022-12-24T12:50:58.410Z,12.40
2022-12-24T12:53:25.081Z,12.40
2022-12-24T12:56:00.971Z,12.40
2022-12-24T12:58:48.972Z,12.50
2022-12-24T13:01:50.994Z,12.50
2022-12-24T13:04:29.539Z,12.50
2022-12-24T13:06:56.225Z,12.50
2022-12-24T13:09:37.832Z,12.50
2022-12-24T13:12:25.553Z,12.40
2022-12-24T13:15:10.567Z,12.40
2022-12-24T13:18:00.773Z,12.30
2022-12-24T13:20:36.860Z,12.30
2022-12-24T13:23:13.399Z,12.30
2022-12-24T13:25:49.454Z,12.30
2022-12-24T13:28:25.126Z,12.30
2022-12-24T13:31:14.220Z,12.30
2022-12-24T13:33:40.917Z,12.20
2022-12-24T13:36:19.103Z,12.10
2022-12-24T13:38:51.931Z,12.00
2022-12-24T13:41:39.232Z,11.90
2022-12-24T13:44:14.971Z,11.80
2022-12-24T13:47:13.630Z,11.70
2022-12-24T13:49:48.603Z,11.60
2022-12-24T13:52:23.486Z,11.60
2022-12-24T13:54:54.427Z,11.60
2022-12-24T13:57:44.699Z,11.60
2022-12-24T14:00:35.721Z,11.60
2022-12-24T14:03:14.615Z,11.50
2022-12-24T14:05:44.335Z,11.50
2022-12-24T14:08:14.552Z,11.50
2022-12-24T14:10:56.242Z,11.40
2022-12-24T14:13:38.168Z,11.30
2022-12-24T14:16:05.141Z,11.20
2022-12-24T14:18:35.390Z,11.00
2022-12-24T14:21:03.154Z,10.90
2022-12-24T14:23:49.636Z,10.80
2022-12-24T14:26:19.396Z,10.70
2022-12-24T14:29:03.345Z,10.70
2022-12-24T14:31:32.659Z,10.60
2022-12-24T14:34:15.432Z,10.60
2022-12-24T14:36:44.501Z,10.60
2022-12-24T14:39:36.946Z,10.50
2022-12-24T14:42:21.761Z,10.50
2022-12-24T14:45:27.314Z,10.40
2022-12-24T14:48:07.677Z,10.30
2022-12-24T14:50:39.941Z,10.30
2022-12-24T14:53:25.622Z,10.20
2022-12-24T14:55:54.497Z,10.20
2022-12-24T14:58:24.049Z,10.10
2022-12-24T15:00:51.945Z,10.00
2022-12-24T15:03:21.491Z,10.00
2022-12-24T15:05:54.255Z,9.90
2022-12-24T15:08:35.977Z,9.80
2022-12-24T15:11:07.484Z,9.80
2022-12-24T15:13:42.577Z,9.60
2022-12-24T15:16:14.630Z,9.50
2022-12-24T15:18:59.504Z,9.40
2022-12-24T15:21:37.517Z,9.30
2022-12-24T15:24:07.364Z,9.20
2022-12-24T15:26:36.599Z,9.10
2022-12-24T15:29:21.195Z,9.00
2022-12-24T15:31:58.763Z,9.00
2022-12-24T15:34:37.265Z,8.90
2022-12-24T15:37:18.358Z,8.90
2022-12-24T15:39:53.215Z,8.90
2022-12-24T15:42:22.755Z,8.90
2022-12-24T15:44:58.431Z,8.90
2022-12-24T15:47:38.565Z,8.90
2022-12-24T15:50:16.321Z,8.80
2022-12-24T15:52:44.592Z,8.80
2022-12-24T15:55:40.123Z,8.70
2022-12-24T15:58:24.049Z,8.60
2022-12-24T16:01:09.466Z,8.60
2022-12-24T16:03:39.242Z,8.60
2022-12-24T16:06:12.299Z,8.70
2022-12-24T16:08:40.549Z,8.70
2022-12-24T16:11:28.517Z,8.70
2022-12-24T16:14:14.255Z,8.70
2022-12-24T16:16:46.269Z,8.70
2022-12-24T16:19:40.082Z,8.70
2022-12-24T16:22:29.820Z,8.70
2022-12-24T16:24:59.129Z,8.60
2022-12-24T16:27:26.155Z,8.60
2022-12-24T16:29:53.018Z,8.70
2022-12-24T16:32:39.647Z,8.70
2022-12-24T16:35:24.816Z,8.70
2022-12-24T16:37:54.481Z,8.70
2022-12-24T16:40:27.949Z,8.70
2022-12-24T16:43:16.944Z,8.70
2022-12-24T16:45:45.037Z,8.70
2022-12-24T16:48:22.391Z,8.80
2022-12-24T16:50:52.378Z,8.80
2022-12-24T16:53:20.930Z,8.80
2022-12-24T16:55:51.564Z,8.80
2022-12-24T16:58:20.040Z,8.80
2022-12-24T17:00:47.325Z,8.80
2022-12-24T17:03:14.511Z,8.80
2022-12-24T17:05:45.294Z,8.80
2022-12-24T17:08:14.607Z,8.80
2022-12-24T17:10:51.632Z,8.90
2022-12-24T17:13:20.571Z,8.90
2022-12-24T17:15:49.492Z,8.90
2022-12-24T17:18:19.322Z,8.90
2022-12-24T17:21:03.651Z,8.90
2022-12-24T17:23:30.514Z,8.80
2022-12-24T17:25:58.175Z,8.80
2022-12-24T17:28:27.397Z,8.80
2022-12-24T17:30:54.186Z,8.80
2022-12-24T17:33:21.028Z,8.80
2022-12-24T17:35:49.253Z,8.90
2022-12-24T17:38:16.013Z,8.90
2022-12-24T17:40:45.148Z,8.90
2022-12-24T17:43:16.512Z,8.90
2022-12-24T17:45:43.523Z,8.90
2022-12-24T17:48:10.301Z,8.80
2022-12-24T17:50:42.401Z,8.80
2022-12-24T17:53:09.224Z,8.80
2022-12-24T17:55:43.031Z,8.80
2022-12-24T17:58:15.007Z,8.70
2022-12-24T18:00:42.445Z,8.70
2022-12-24T18:03:14.087Z,8.70
2022-12-24T18:05:40.972Z,8.70
2022-12-24T18:08:07.803Z,8.70
2022-12-24T18:10:37.013Z,8.80
2022-12-24T18:13:06.924Z,8.80
2022-12-24T18:15:35.714Z,8.80
2022-12-24T18:18:02.759Z,8.70
2022-12-24T18:20:30.244Z,8.80
2022-12-24T18:22:59.531Z,8.70
2022-12-24T18:25:26.338Z,8.70
2022-12-24T18:27:55.518Z,8.70
2022-12-24T18:30:27.554Z,8.60
2022-12-24T18:32:56.996Z,8.60
2022-12-24T18:35:26.000Z,8.60
2022-12-24T18:37:54.966Z,8.60
2022-12-24T18:40:21.746Z,8.60
2022-12-24T18:42:50.790Z,8.60
2022-12-24T18:45:19.994Z,8.60
2022-12-24T18:47:51.359Z,8.50
2022-12-24T18:50:20.575Z,8.40
2022-12-24T18:52:50.610Z,8.40
2022-12-24T18:55:19.953Z,8.30
2022-12-24T18:57:46.627Z,8.30
2022-12-24T19:00:13.555Z,8.30
2022-12-24T19:02:44.763Z,8.30
2022-12-24T19:05:11.684Z,8.30
2022-12-24T19:07:42.940Z,8.30
2022-12-24T19:10:12.461Z,8.30
2022-12-24T19:12:43.853Z,8.30
2022-12-24T19:15:13.144Z,8.30
2022-12-24T19:17:39.914Z,8.30
2022-12-24T19:20:11.614Z,8.40
2022-12-24T19:22:38.479Z,8.30
2022-12-24T19:25:05.716Z,8.40
2022-12-24T19:27:32.419Z,8.40
2022-12-24T19:30:01.400Z,8.40
2022-12-24T19:32:30.475Z,8.40
2022-12-24T19:34:57.189Z,8.40
2022-12-24T19:37:28.839Z,8.40
2022-12-24T19:39:55.554Z,8.40
2022-12-24T19:42:22.311Z,8.40
2022-12-24T19:44:48.994Z,8.40
2022-12-24T19:47:18.235Z,8.40
2022-12-24T19:49:47.084Z,8.40
2022-12-24T19:52:18.502Z,8.40
2022-12-24T19:54:46.279Z,8.40
2022-12-24T19:57:15.230Z,8.40
2022-12-24T19:59:41.884Z,8.40
2022-12-24T20:02:11.162Z,8.30
2022-12-24T20:04:40.294Z,8.30
2022-12-24T20:07:07.276Z,8.30
2022-12-24T20:09:37.142Z,8.30
2022-12-24T20:12:09.005Z,8.30
2022-12-24T20:14:35.814Z,8.30
2022-12-24T20:17:02.625Z,8.30
2022-12-24T20:19:29.432Z,8.30
2022-12-24T20:21:56.244Z,8.30
2022-12-24T20:24:25.433Z,8.30
2022-12-24T20:26:54.401Z,8.30
2022-12-24T20:29:23.322Z,8.30
2022-12-24T20:31:52.549Z,8.30
2022-12-24T20:34:19.277Z,8.20
2022-12-24T20:36:46.059Z,8.20
2022-12-24T20:39:17.535Z,8.30
2022-12-24T20:41:44.271Z,8.30
2022-12-24T20:44:11.107Z,8.30
2022-12-24T20:46:37.957Z,8.30
2022-12-24T20:49:07.532Z,8.30
2022-12-24T20:51:36.465Z,8.30
2022-12-24T20:54:08.220Z,8.30
2022-12-24T20:56:34.911Z,8.20
2022-12-24T20:59:04.334Z,8.20
2022-12-24T21:01:34.447Z,8.20
2022-12-24T21:04:05.562Z,8.20
2022-12-24T21:06:35.314Z,8.20
2022-12-24T21:09:05.955Z,8.20
2022-12-24T21:11:50.806Z,8.20
2022-12-24T21:14:23.847Z,8.20
2022-12-24T21:16:52.502Z,8.20
2022-12-24T21:19:24.988Z,8.10
2022-12-24T21:21:51.942Z,8.20
2022-12-24T21:24:23.269Z,8.20
2022-12-24T21:26:50.148Z,8.20
2022-12-24T21:29:16.927Z,8.20
2022-12-24T21:31:43.995Z,8.20
2022-12-24T21:34:13.163Z,8.20
2022-12-24T21:36:40.014Z,8.20
2022-12-24T21:39:09.185Z,8.20
2022-12-24T21:41:38.045Z,8.20
2022-12-24T21:44:04.864Z,8.20
2022-12-24T21:46:34.053Z,8.20
2022-12-24T21:49:19.577Z,8.20
2022-12-24T21:51:48.996Z,8.20
2022-12-24T21:54:31.383Z,8.20
2022-12-24T21:57:18.004Z,8.20
2022-12-24T21:59:48.929Z,8.10
2022-12-24T22:02:19.340Z,8.20
2022-12-24T22:04:46.666Z,8.10
2022-12-24T22:07:45.867Z,8.10
2022-12-24T22:10:33.075Z,8.20
2022-12-24T22:13:06.330Z,8.10
2022-12-24T22:15:42.460Z,8.10
2022-12-24T22:18:11.553Z,8.20
2022-12-24T22:20:41.909Z,8.20
2022-12-24T22:23:14.307Z,8.10
2022-12-24T22:25:42.194Z,8.20
2022-12-24T22:28:09.098Z,8.10
2022-12-24T22:30:45.074Z,8.10
2022-12-24T22:33:11.890Z,8.10
2022-12-24T22:35:42.683Z,8.10
2022-12-24T22:38:10.547Z,8.10
2022-12-24T22:40:41.674Z,8.20
2022-12-24T22:43:13.181Z,8.20
2022-12-24T22:45:42.335Z,8.10
2022-12-24T22:48:09.547Z,8.10
2022-12-24T22:50:39.157Z,8.00
2022-12-24T22:53:08.059Z,7.90
2022-12-24T22:55:34.726Z,7.90
2022-12-24T22:58:04.280Z,7.90
2022-12-24T23:00:46.075Z,7.90
2022-12-24T23:03:15.540Z,7.80
2022-12-24T23:05:44.767Z,7.80
2022-12-24T23:08:14.198Z,7.70
2022-12-24T23:10:43.227Z,7.70
2022-12-24T23:13:31.519Z,7.60
2022-12-24T23:16:04.522Z,7.50
2022-12-24T23:18:34.300Z,7.40
2022-12-24T23:21:08.294Z,7.40
2022-12-24T23:23:37.643Z,7.30
2022-12-24T23:26:16.044Z,7.40
2022-12-24T23:28:45.590Z,7.30
2022-12-24T23:31:15.266Z,7.30
2022-12-24T23:33:42.747Z,7.30
2022-12-24T23:36:10.076Z,7.30
2022-12-24T23:38:36.881Z,7.30
2022-12-24T23:41:06.051Z,7.40
2022-12-24T23:43:33.327Z,7.40
2022-12-24T23:46:00.753Z,7.50
2022-12-24T23:48:27.944Z,7.50
2022-12-24T23:51:08.648Z,7.50
2022-12-24T23:53:38.325Z,7.50
2022-12-24T23:56:06.084Z,7.40
2022-12-24T23:58:35.280Z,7.40
